Time;durP1;ratioP1;P1;durP2;ratioP2;P2;SDS_P1;SDS_P2;PMS_P1;PMS_P2;Temp;Humidity;BMP_temperature;BMP_pressure;BME280_temperature;BME280_humidity;BME280_pressure;Samples;Min_cycle;Max_cycle;Signal;HPM_P1;HPM_P2
2023/10/06 00:01:31;;;;;;;7.65;4.20;;;12.50;99.90;;;;;;5087748;28;20435;-69
2023/10/06 00:03:59;;;;;;;6.50;4.20;;;12.50;99.90;;;;;;5096715;28;20496;-68
2023/10/06 00:06:27;;;;;;;5.22;3.97;;;12.50;99.90;;;;;;5087512;28;20843;-68
2023/10/06 00:08:57;;;;;;;6.65;3.80;;;12.40;99.90;;;;;;5084112;28;20449;-69
2023/10/06 00:11:31;;;;;;;6.38;4.03;;;12.40;99.90;;;;;;5097504;28;20515;-68
2023/10/06 00:14:01;;;;;;;6.07;4.30;;;12.40;99.90;;;;;;5095870;28;21144;-68
2023/10/06 00:16:33;;;;;;;5.40;4.40;;;12.40;99.90;;;;;;5077628;28;20413;-68
2023/10/06 00:19:12;;;;;;;6.45;3.85;;;12.30;99.90;;;;;;5098861;28;20420;-67
2023/10/06 00:21:43;;;;;;;7.47;4.30;;;12.30;99.90;;;;;;5079750;28;20509;-68
2023/10/06 00:24:11;;;;;;;6.90;4.00;;;12.30;99.90;;;;;;5100490;28;20652;-69
2023/10/06 00:26:39;;;;;;;5.43;3.92;;;12.30;99.90;;;;;;5077054;28;20695;-68
2023/10/06 00:29:10;;;;;;;6.18;4.30;;;12.30;99.90;;;;;;5084000;28;20418;-69
2023/10/06 00:31:36;;;;;;;7.40;4.65;;;12.30;99.90;;;;;;5098787;28;20485;-68
2023/10/06 00:34:04;;;;;;;5.80;4.00;;;12.30;99.90;;;;;;5079677;28;20431;-69
2023/10/06 00:36:30;;;;;;;5.38;4.10;;;12.20;99.90;;;;;;5099626;28;20481;-67
2023/10/06 00:38:57;;;;;;;6.53;4.18;;;12.20;99.90;;;;;;5083528;28;20435;-68
2023/10/06 00:41:26;;;;;;;6.82;4.43;;;12.20;99.90;;;;;;5094986;28;20436;-67
2023/10/06 00:43:55;;;;;;;6.50;4.65;;;12.20;99.90;;;;;;5082632;28;20418;-68
2023/10/06 00:46:21;;;;;;;6.45;3.80;;;12.20;99.90;;;;;;5096161;28;20524;-68
2023/10/06 00:48:53;;;;;;;4.90;4.00;;;12.20;99.90;;;;;;5092750;28;20410;-68
2023/10/06 00:51:22;;;;;;;6.30;4.38;;;12.10;99.90;;;;;;5087672;28;20859;-68
2023/10/06 00:53:51;;;;;;;5.68;4.32;;;12.20;99.90;;;;;;5097396;28;20417;-68
2023/10/06 00:56:18;;;;;;;5.60;4.30;;;12.20;99.90;;;;;;5087265;28;20422;-68
2023/10/06 00:58:45;;;;;;;7.23;4.30;;;12.20;99.90;;;;;;5086714;28;20688;-68
2023/10/06 01:01:16;;;;;;;7.20;4.57;;;12.10;99.90;;;;;;5093766;28;20402;-68
2023/10/06 01:03:48;;;;;;;6.23;4.80;;;12.20;99.90;;;;;;5096635;28;20549;-68
2023/10/06 01:06:17;;;;;;;6.60;5.30;;;12.10;99.90;;;;;;5081961;28;20424;-67
2023/10/06 01:08:52;;;;;;;5.80;4.67;;;12.10;99.90;;;;;;5092773;28;20398;-68
2023/10/06 01:11:20;;;;;;;5.30;4.35;;;12.10;99.90;;;;;;5085014;28;20428;-68
2023/10/06 01:13:56;;;;;;;7.25;4.10;;;12.10;99.90;;;;;;5095672;28;20505;-67
2023/10/06 01:16:29;;;;;;;6.82;4.10;;;12.10;99.90;;;;;;5099693;28;20760;-67
2023/10/06 01:19:01;;;;;;;7.03;4.50;;;12.20;99.90;;;;;;5095743;28;20871;-68
2023/10/06 01:21:29;;;;;;;4.63;4.10;;;12.10;99.90;;;;;;5088333;28;20597;-68
2023/10/06 01:23:59;;;;;;;8.77;4.67;;;12.10;99.90;;;;;;5093700;28;20430;-68
2023/10/06 01:26:26;;;;;;;7.78;4.80;;;12.10;99.90;;;;;;5084997;28;20509;-68
2023/10/06 01:28:53;;;;;;;7.00;4.50;;;12.10;99.90;;;;;;5088434;28;20425;-67
2023/10/06 01:31:20;;;;;;;6.57;4.50;;;12.10;99.90;;;;;;5097121;28;20604;-68
2023/10/06 01:33:47;;;;;;;6.88;4.75;;;12.00;99.90;;;;;;5090725;28;20470;-68
2023/10/06 01:36:15;;;;;;;5.35;4.25;;;12.00;99.90;;;;;;5094568;28;20513;-68
2023/10/06 01:38:43;;;;;;;7.60;4.30;;;12.00;99.90;;;;;;5082102;28;20416;-68
2023/10/06 01:41:11;;;;;;;7.00;4.05;;;12.00;99.90;;;;;;5087013;28;20512;-68
2023/10/06 01:43:38;;;;;;;7.03;4.33;;;12.00;99.90;;;;;;5094506;28;20431;-68
2023/10/06 01:46:07;;;;;;;7.10;4.57;;;12.00;99.90;;;;;;5079464;28;20406;-68
2023/10/06 01:48:36;;;;;;;6.20;4.20;;;12.00;99.90;;;;;;5088575;28;20818;-68
2023/10/06 01:51:08;;;;;;;7.10;4.20;;;12.00;99.90;;;;;;5094220;28;20428;-68
2023/10/06 01:53:39;;;;;;;8.05;4.13;;;12.00;99.90;;;;;;5094270;28;20426;-68
2023/10/06 01:56:07;;;;;;;4.80;4.30;;;11.90;99.90;;;;;;5083304;28;20833;-68
2023/10/06 01:58:36;;;;;;;8.02;4.20;;;11.90;99.90;;;;;;5090837;27;20710;-68
2023/10/06 02:01:05;;;;;;;6.88;3.97;;;11.90;99.90;;;;;;5074483;28;20434;-68
2023/10/06 02:03:38;;;;;;;7.28;4.05;;;11.90;99.90;;;;;;5075568;28;20454;-68
2023/10/06 02:06:05;;;;;;;6.65;4.30;;;11.80;99.90;;;;;;5092015;28;20445;-68
2023/10/06 02:08:32;;;;;;;6.65;4.20;;;11.80;99.90;;;;;;5086079;28;20748;-67
2023/10/06 02:11:01;;;;;;;6.70;3.80;;;11.80;99.90;;;;;;5094366;28;20432;-68
2023/10/06 02:13:29;;;;;;;6.10;3.80;;;11.80;99.90;;;;;;5082060;28;20438;-68
2023/10/06 02:15:59;;;;;;;6.88;4.13;;;11.80;99.90;;;;;;5096058;28;20945;-68
2023/10/06 02:18:35;;;;;;;6.05;4.10;;;11.80;99.90;;;;;;5085405;28;20851;-68
2023/10/06 02:21:06;;;;;;;6.53;4.22;;;11.70;99.90;;;;;;5098234;28;20414;-68
2023/10/06 02:23:37;;;;;;;6.20;3.80;;;11.70;99.90;;;;;;5091873;28;20417;-68
2023/10/06 02:26:07;;;;;;;5.32;4.00;;;11.70;99.90;;;;;;5094395;28;20607;-67
2023/10/06 02:28:34;;;;;;;6.30;4.15;;;11.70;99.90;;;;;;5086930;28;20434;-68
2023/10/06 02:31:05;;;;;;;7.63;4.10;;;11.70;99.90;;;;;;5075665;28;20423;-68
2023/10/06 02:33:36;;;;;;;5.57;4.15;;;11.70;99.90;;;;;;5090325;28;20481;-68
2023/10/06 02:36:13;;;;;;;7.30;4.80;;;11.70;99.90;;;;;;5073501;28;20443;-68
2023/10/06 02:38:46;;;;;;;8.27;4.30;;;11.70;99.90;;;;;;5083495;28;20468;-66
2023/10/06 02:41:18;;;;;;;6.18;4.20;;;11.60;99.90;;;;;;5079705;28;20454;-68
2023/10/06 02:43:46;;;;;;;7.07;4.30;;;11.60;99.90;;;;;;5088682;28;20493;-68
2023/10/06 02:46:15;;;;;;;6.30;4.57;;;11.60;99.90;;;;;;5087036;28;20514;-67
2023/10/06 02:48:48;;;;;;;6.32;4.40;;;11.60;99.90;;;;;;5090401;28;20409;-68
2023/10/06 02:51:20;;;;;;;4.88;4.20;;;11.60;99.90;;;;;;5088290;28;20411;-69
2023/10/06 02:53:50;;;;;;;5.67;4.57;;;11.60;99.90;;;;;;5085501;28;20498;-68
2023/10/06 02:56:21;;;;;;;6.05;4.22;;;11.60;99.90;;;;;;5083892;28;20426;-67
2023/10/06 02:58:51;;;;;;;9.05;4.70;;;11.60;99.90;;;;;;5079057;28;20413;-68
2023/10/06 03:01:19;;;;;;;6.35;4.97;;;11.60;99.90;;;;;;5089896;28;20443;-68
2023/10/06 03:03:46;;;;;;;7.07;4.43;;;11.60;99.90;;;;;;5072267;28;20417;-68
2023/10/06 03:06:17;;;;;;;5.03;4.53;;;11.60;99.90;;;;;;5087157;28;20412;-67
2023/10/06 03:08:44;;;;;;;5.55;4.90;;;11.50;99.90;;;;;;5070340;28;20512;-68
2023/10/06 03:11:22;;;;;;;5.90;4.85;;;11.50;99.90;;;;;;5098555;28;20471;-68
2023/10/06 03:13:51;;;;;;;7.22;4.63;;;11.50;99.90;;;;;;5088398;28;20884;-67
2023/10/06 03:16:21;;;;;;;5.53;4.60;;;11.50;99.90;;;;;;5102814;28;20418;-68
2023/10/06 03:18:52;;;;;;;7.43;4.43;;;11.40;99.90;;;;;;5097127;28;20519;-68
2023/10/06 03:21:19;;;;;;;4.70;4.20;;;11.50;99.90;;;;;;5096637;28;20417;-68
2023/10/06 03:23:47;;;;;;;6.20;4.75;;;11.50;99.90;;;;;;5097813;28;20598;-67
2023/10/06 03:26:24;;;;;;;4.93;4.00;;;11.40;99.90;;;;;;5098484;28;20418;-68
2023/10/06 03:28:53;;;;;;;6.18;4.57;;;11.50;99.90;;;;;;5103188;28;20415;-68
2023/10/06 03:31:30;;;;;;;6.45;4.60;;;11.50;99.90;;;;;;5081109;27;20506;-68
2023/10/06 03:33:57;;;;;;;5.63;4.75;;;11.40;99.90;;;;;;5098989;28;20831;-67
2023/10/06 03:36:36;;;;;;;5.43;4.10;;;11.50;99.90;;;;;;5081275;28;20417;-68
2023/10/06 03:39:07;;;;;;;5.17;4.67;;;11.40;99.90;;;;;;5098531;28;20584;-67
2023/10/06 03:41:36;;;;;;;7.72;4.55;;;11.40;99.90;;;;;;5089565;28;20529;-68
2023/10/06 03:44:04;;;;;;;5.10;4.40;;;11.40;99.90;;;;;;5098237;28;20424;-68
2023/10/06 03:46:37;;;;;;;6.63;4.18;;;11.30;99.90;;;;;;5101550;28;20416;-68
2023/10/06 03:49:04;;;;;;;6.05;4.50;;;11.40;99.90;;;;;;5084547;28;20419;-68
2023/10/06 03:51:37;;;;;;;6.20;4.90;;;11.30;99.90;;;;;;5102091;28;20404;-68
2023/10/06 03:54:05;;;;;;;6.07;4.47;;;11.30;99.90;;;;;;5085091;28;20517;-68
2023/10/06 03:56:31;;;;;;;5.50;4.50;;;11.30;99.90;;;;;;5085458;28;20412;-68
2023/10/06 03:58:59;;;;;;;5.25;4.38;;;11.20;99.90;;;;;;5084153;28;20409;-68
2023/10/06 04:01:27;;;;;;;7.22;4.40;;;11.20;99.90;;;;;;5097670;28;20777;-68
2023/10/06 04:03:58;;;;;;;5.88;4.80;;;11.20;99.90;;;;;;5081602;28;20417;-67
2023/10/06 04:06:25;;;;;;;6.10;4.50;;;11.20;99.90;;;;;;5081303;28;20466;-68
2023/10/06 04:08:52;;;;;;;5.50;4.20;;;11.20;99.90;;;;;;5079979;28;20410;-68
2023/10/06 04:11:19;;;;;;;7.22;4.88;;;11.20;99.90;;;;;;5095921;28;20974;-68
2023/10/06 04:13:46;;;;;;;5.20;4.70;;;11.20;99.90;;;;;;5086531;28;20452;-68
2023/10/06 04:16:14;;;;;;;6.75;4.47;;;11.10;99.90;;;;;;5096576;28;20415;-68
2023/10/06 04:18:41;;;;;;;7.50;4.68;;;11.20;99.90;;;;;;5086899;28;20466;-68
2023/10/06 04:21:11;;;;;;;5.18;4.53;;;11.10;99.90;;;;;;5088095;28;20858;-68
2023/10/06 04:23:41;;;;;;;6.30;4.82;;;11.10;99.90;;;;;;5090631;28;20789;-67
2023/10/06 04:26:09;;;;;;;5.50;4.40;;;11.10;99.90;;;;;;5097087;28;20497;-67
2023/10/06 04:28:37;;;;;;;8.60;5.20;;;11.10;99.90;;;;;;5099420;28;20420;-67
2023/10/06 04:31:05;;;;;;;5.53;4.60;;;11.10;99.90;;;;;;5080234;28;20509;-67
2023/10/06 04:33:33;;;;;;;6.97;4.80;;;11.10;99.90;;;;;;5098438;28;20436;-68
2023/10/06 04:36:07;;;;;;;7.63;4.40;;;11.10;99.90;;;;;;5087289;28;20425;-68
2023/10/06 04:38:37;;;;;;;7.18;4.93;;;11.10;99.90;;;;;;5092382;28;20918;-68
2023/10/06 04:41:06;;;;;;;6.25;4.82;;;11.10;99.90;;;;;;5089969;28;20468;-68
2023/10/06 04:43:33;;;;;;;6.70;4.80;;;11.10;99.90;;;;;;5092984;28;20407;-68
2023/10/06 04:46:00;;;;;;;6.20;5.10;;;11.10;99.90;;;;;;5094319;28;20516;-67
2023/10/06 04:48:29;;;;;;;6.05;4.70;;;11.10;99.90;;;;;;5104690;28;20404;-68
2023/10/06 04:50:56;;;;;;;7.95;5.22;;;11.10;99.90;;;;;;5094334;28;20418;-66
2023/10/06 04:53:23;;;;;;;7.20;5.00;;;11.10;99.90;;;;;;5094695;28;20521;-68
2023/10/06 04:55:51;;;;;;;7.72;5.00;;;11.10;99.90;;;;;;5085752;28;20452;-68
2023/10/06 04:58:18;;;;;;;6.70;5.20;;;11.10;99.90;;;;;;5096793;28;20484;-67
2023/10/06 05:00:47;;;;;;;9.20;4.80;;;11.10;99.90;;;;;;5075057;28;20869;-66
2023/10/06 05:03:16;;;;;;;6.70;5.07;;;11.00;99.90;;;;;;5091892;28;20428;-68
2023/10/06 05:05:42;;;;;;;6.38;4.80;;;11.00;99.90;;;;;;5087392;28;20427;-66
2023/10/06 05:08:14;;;;;;;7.45;5.35;;;11.00;99.90;;;;;;5081114;28;20774;-68
2023/10/06 05:10:41;;;;;;;6.47;5.00;;;11.00;99.90;;;;;;5099377;28;20408;-67
2023/10/06 05:13:10;;;;;;;6.15;4.70;;;11.00;99.90;;;;;;5093468;28;20903;-68
2023/10/06 05:15:40;;;;;;;5.97;4.60;;;11.00;99.90;;;;;;5087223;28;20508;-67
2023/10/06 05:18:12;;;;;;;5.85;4.32;;;11.00;99.90;;;;;;5094473;28;20420;-67
2023/10/06 05:20:39;;;;;;;5.50;4.72;;;11.00;99.90;;;;;;5101771;28;20451;-68
2023/10/06 05:23:09;;;;;;;5.45;4.68;;;10.90;99.90;;;;;;5081161;28;20424;-68
2023/10/06 05:25:36;;;;;;;5.70;5.10;;;10.90;99.90;;;;;;5100394;28;20408;-68
2023/10/06 05:28:04;;;;;;;6.13;4.70;;;10.90;99.90;;;;;;5101923;28;20410;-68
2023/10/06 05:30:33;;;;;;;7.38;4.85;;;10.90;99.90;;;;;;5085058;28;20418;-68
2023/10/06 05:32:59;;;;;;;5.80;4.72;;;10.90;99.90;;;;;;5084023;28;20453;-67
2023/10/06 05:35:27;;;;;;;7.05;4.50;;;10.90;99.90;;;;;;5089094;28;20436;-68
2023/10/06 05:37:54;;;;;;;5.10;4.30;;;10.90;99.90;;;;;;5094047;28;20445;-68
2023/10/06 05:40:21;;;;;;;6.30;5.00;;;10.80;99.90;;;;;;5075658;28;20511;-68
2023/10/06 05:42:49;;;;;;;8.18;5.13;;;10.80;99.90;;;;;;5094282;28;20434;-67
2023/10/06 05:45:18;;;;;;;6.70;4.90;;;10.80;99.90;;;;;;5090856;28;20455;-67
2023/10/06 05:47:47;;;;;;;6.45;5.05;;;10.80;99.90;;;;;;5088086;28;20480;-67
2023/10/06 05:50:18;;;;;;;7.40;5.10;;;10.80;99.90;;;;;;5094810;28;20418;-67
2023/10/06 05:52:51;;;;;;;5.40;4.90;;;10.80;99.90;;;;;;5094503;28;20479;-66
2023/10/06 05:55:19;;;;;;;6.40;4.78;;;10.80;99.90;;;;;;5076393;28;20430;-67
2023/10/06 05:57:51;;;;;;;6.60;5.18;;;10.90;99.90;;;;;;5100940;28;20782;-67
2023/10/06 06:00:24;;;;;;;6.03;5.18;;;10.80;99.90;;;;;;5100654;22;20677;-69
2023/10/06 06:02:53;;;;;;;6.55;4.68;;;10.90;99.90;;;;;;5073896;28;20906;-65
2023/10/06 06:05:20;;;;;;;5.82;4.65;;;10.80;99.90;;;;;;5074554;28;20421;-67
2023/10/06 06:07:47;;;;;;;6.45;4.75;;;10.80;99.90;;;;;;5084287;28;20509;-68
2023/10/06 06:10:15;;;;;;;6.95;5.10;;;10.90;99.90;;;;;;5079760;28;20429;-68
2023/10/06 06:12:42;;;;;;;6.80;4.80;;;10.90;99.90;;;;;;5088760;28;21019;-67
2023/10/06 06:15:11;;;;;;;7.03;4.80;;;10.90;99.90;;;;;;5085559;28;20410;-68
2023/10/06 06:17:38;;;;;;;8.82;5.10;;;11.00;99.90;;;;;;5083073;28;20496;-68
2023/10/06 06:20:08;;;;;;;5.60;4.70;;;11.00;99.90;;;;;;5083765;28;20884;-68
2023/10/06 06:22:37;;;;;;;6.00;5.20;;;11.00;99.90;;;;;;5080576;28;20514;-68
2023/10/06 06:25:06;;;;;;;5.57;4.50;;;11.00;99.90;;;;;;5087879;28;20473;-68
2023/10/06 06:27:32;;;;;;;5.95;4.65;;;11.00;99.90;;;;;;5078028;28;20494;-69
2023/10/06 06:29:59;;;;;;;7.88;5.70;;;11.00;99.90;;;;;;5086188;28;20433;-68
2023/10/06 06:32:26;;;;;;;7.28;4.90;;;11.00;99.90;;;;;;5083817;28;20437;-68
2023/10/06 06:34:53;;;;;;;5.93;5.30;;;11.00;99.90;;;;;;5090562;28;20412;-68
2023/10/06 06:37:23;;;;;;;7.13;4.90;;;11.00;99.90;;;;;;5084595;28;20443;-68
2023/10/06 06:39:49;;;;;;;6.20;5.60;;;11.10;99.90;;;;;;5083929;28;20406;-68
2023/10/06 06:42:16;;;;;;;7.88;5.45;;;11.10;99.90;;;;;;5080536;28;20495;-68
2023/10/06 06:44:47;;;;;;;7.78;5.25;;;11.20;99.90;;;;;;5082523;28;20753;-70
2023/10/06 06:47:16;;;;;;;5.32;4.65;;;11.20;99.90;;;;;;5090992;28;20494;-70
2023/10/06 06:49:44;;;;;;;7.60;5.10;;;11.30;99.90;;;;;;5084476;28;20410;-71
2023/10/06 06:52:12;;;;;;;5.60;4.95;;;11.30;99.90;;;;;;5078189;28;20467;-72
2023/10/06 06:54:46;;;;;;;6.78;5.30;;;11.30;99.90;;;;;;5087484;28;20417;-70
2023/10/06 06:57:15;;;;;;;7.00;5.23;;;11.40;99.90;;;;;;5085546;28;20418;-69
2023/10/06 06:59:44;;;;;;;6.70;5.32;;;11.50;99.90;;;;;;5081593;28;20495;-69
2023/10/06 07:02:11;;;;;;;5.93;5.00;;;11.60;99.90;;;;;;5080854;28;20888;-69
2023/10/06 07:04:38;;;;;;;6.07;5.40;;;11.70;99.90;;;;;;5080110;28;20418;-69
2023/10/06 07:07:05;;;;;;;5.97;4.72;;;11.80;99.90;;;;;;5083272;28;20412;-68
2023/10/06 07:09:31;;;;;;;10.30;5.43;;;11.90;99.90;;;;;;5079019;28;20405;-69
2023/10/06 07:11:59;;;;;;;8.63;5.30;;;12.00;99.90;;;;;;5080716;28;20812;-69
2023/10/06 07:14:27;;;;;;;7.05;4.95;;;12.10;99.90;;;;;;5085700;28;20426;-69
2023/10/06 07:16:56;;;;;;;5.28;4.78;;;12.30;99.90;;;;;;5078698;28;20446;-69
2023/10/06 07:19:23;;;;;;;7.93;5.25;;;12.40;99.90;;;;;;5084952;28;20763;-70
2023/10/06 07:21:51;;;;;;;6.43;4.70;;;12.60;99.90;;;;;;5081228;28;20426;-69
2023/10/06 07:24:18;;;;;;;8.05;5.10;;;12.80;99.90;;;;;;5083915;28;20406;-69
2023/10/06 07:26:45;;;;;;;6.60;4.18;;;12.90;99.90;;;;;;5088928;28;20417;-69
2023/10/06 07:29:14;;;;;;;5.40;3.95;;;13.10;99.90;;;;;;5083012;28;20421;-69
2023/10/06 07:31:41;;;;;;;6.32;4.30;;;13.20;99.90;;;;;;5090486;28;20414;-69
2023/10/06 07:34:07;;;;;;;7.30;4.88;;;13.30;99.90;;;;;;5089057;28;20421;-70
2023/10/06 07:36:35;;;;;;;5.97;4.68;;;13.40;99.90;;;;;;5090228;28;20868;-70
2023/10/06 07:39:08;;;;;;;7.25;4.55;;;13.50;99.90;;;;;;5088113;28;20495;-69
2023/10/06 07:41:36;;;;;;;6.53;4.80;;;13.50;99.90;;;;;;5087653;28;20507;-70
2023/10/06 07:44:05;;;;;;;5.82;4.50;;;13.50;99.90;;;;;;5085078;28;20469;-70
2023/10/06 07:46:33;;;;;;;5.50;4.35;;;13.60;99.90;;;;;;5088751;28;20775;-69
2023/10/06 07:49:01;;;;;;;5.70;4.70;;;13.60;99.90;;;;;;5092595;28;20404;-69
2023/10/06 07:51:28;;;;;;;5.55;4.80;;;13.70;99.90;;;;;;5086720;28;20808;-69
2023/10/06 07:53:55;;;;;;;5.40;4.70;;;13.70;99.90;;;;;;5080758;28;20467;-71
2023/10/06 07:56:22;;;;;;;6.90;4.70;;;13.80;99.90;;;;;;5079849;28;20406;-71
2023/10/06 07:58:52;;;;;;;5.70;4.50;;;13.80;99.90;;;;;;5080589;28;20431;-71
2023/10/06 08:01:20;;;;;;;8.02;5.18;;;13.80;99.90;;;;;;5086472;28;20472;-70
2023/10/06 08:03:48;;;;;;;7.15;4.70;;;13.80;99.90;;;;;;5091909;28;20437;-71
2023/10/06 08:06:15;;;;;;;7.88;4.50;;;13.80;99.90;;;;;;5091254;28;20795;-72
2023/10/06 08:08:41;;;;;;;6.55;4.35;;;13.90;99.90;;;;;;5087173;28;20411;-70
2023/10/06 08:11:09;;;;;;;6.10;4.20;;;14.00;99.90;;;;;;5084700;28;20885;-69
2023/10/06 08:13:37;;;;;;;4.70;3.85;;;14.10;99.90;;;;;;5089481;28;20421;-70
2023/10/06 08:16:06;;;;;;;6.05;4.18;;;14.30;99.90;;;;;;5087618;28;20441;-69
2023/10/06 08:18:33;;;;;;;6.18;3.90;;;14.40;99.90;;;;;;5088366;28;20424;-69
2023/10/06 08:21:02;;;;;;;5.55;3.50;;;14.60;98.70;;;;;;5089797;28;20460;-71
2023/10/06 08:23:29;;;;;;;7.43;3.70;;;14.70;98.00;;;;;;5091742;28;20414;-69
2023/10/06 08:25:57;;;;;;;5.00;3.80;;;14.80;98.10;;;;;;5082725;28;20425;-69
2023/10/06 08:28:24;;;;;;;7.05;3.90;;;14.80;97.30;;;;;;5095476;28;20457;-70
2023/10/06 08:30:51;;;;;;;4.95;3.50;;;14.90;97.50;;;;;;5089939;28;20538;-69
2023/10/06 08:33:17;;;;;;;5.53;3.40;;;15.00;97.00;;;;;;5089412;28;20426;-68
2023/10/06 08:35:44;;;;;;;5.35;3.65;;;15.00;97.30;;;;;;5091265;28;20526;-69
2023/10/06 08:38:12;;;;;;;5.80;3.40;;;15.10;96.60;;;;;;5090650;28;20912;-69
2023/10/06 08:40:43;;;;;;;6.60;3.83;;;15.30;96.10;;;;;;5092335;28;20424;-70
2023/10/06 08:43:10;;;;;;;5.45;3.70;;;15.40;95.40;;;;;;5091412;28;20406;-70
2023/10/06 08:45:41;;;;;;;6.07;4.00;;;15.60;95.20;;;;;;5095730;28;20422;-69
2023/10/06 08:48:10;;;;;;;5.45;3.50;;;15.80;94.80;;;;;;5090254;28;20935;-70
2023/10/06 08:50:38;;;;;;;6.93;3.50;;;16.00;95.30;;;;;;5084835;28;20429;-70
2023/10/06 08:53:09;;;;;;;5.63;3.50;;;16.30;94.30;;;;;;5089964;28;20417;-70
2023/10/06 08:55:38;;;;;;;5.53;3.40;;;16.60;92.60;;;;;;5091149;28;20414;-70
2023/10/06 08:58:07;;;;;;;5.53;3.30;;;16.70;92.90;;;;;;5091054;28;20852;-71
2023/10/06 09:00:36;;;;;;;6.07;3.60;;;16.80;92.60;;;;;;5077525;28;20445;-71
2023/10/06 09:03:08;;;;;;;4.05;3.00;;;16.90;92.50;;;;;;5078569;28;20565;-71
2023/10/06 09:05:36;;;;;;;4.97;3.00;;;17.00;92.30;;;;;;5077014;28;20426;-71
2023/10/06 09:08:05;;;;;;;4.78;3.20;;;17.20;91.80;;;;;;5081730;28;20461;-72
2023/10/06 09:10:33;;;;;;;5.18;3.00;;;17.40;91.20;;;;;;5082143;28;20438;-71
2023/10/06 09:13:04;;;;;;;5.55;3.20;;;17.50;90.30;;;;;;5086024;28;20443;-71
2023/10/06 09:15:31;;;;;;;5.45;3.35;;;17.60;90.30;;;;;;5082217;28;20430;-72
2023/10/06 09:17:58;;;;;;;6.10;2.90;;;17.90;90.20;;;;;;5090566;28;20413;-72
2023/10/06 09:20:36;;;;;;;5.43;2.90;;;18.20;89.60;;;;;;5090704;28;20417;-72
2023/10/06 09:23:03;;;;;;;5.25;3.05;;;18.50;87.00;;;;;;5099466;28;20492;-72
2023/10/06 09:25:42;;;;;;;3.92;2.70;;;18.70;85.40;;;;;;5093582;28;20493;-73
2023/10/06 09:28:13;;;;;;;4.45;2.50;;;18.90;80.70;;;;;;5121619;28;20407;-72
2023/10/06 09:30:56;;;;;;;5.23;2.77;;;19.00;79.70;;;;;;5102504;28;20522;-73
2023/10/06 09:33:26;;;;;;;4.63;2.80;;;19.10;80.10;;;;;;5095528;28;20805;-72
2023/10/06 09:36:06;;;;;;;5.50;2.70;;;19.40;77.50;;;;;;5094900;28;20423;-73
2023/10/06 09:38:34;;;;;;;5.68;2.80;;;19.60;75.20;;;;;;5092701;28;20421;-71
2023/10/06 09:41:00;;;;;;;4.20;2.58;;;19.70;75.20;;;;;;5092361;28;20429;-72
2023/10/06 09:43:34;;;;;;;5.20;2.55;;;19.80;74.40;;;;;;5091983;28;20417;-71
2023/10/06 09:46:06;;;;;;;3.55;1.95;;;20.00;71.90;;;;;;5089977;28;20421;-71
2023/10/06 09:48:36;;;;;;;5.35;2.70;;;20.00;72.60;;;;;;5089551;28;20438;-71
2023/10/06 09:51:07;;;;;;;4.22;2.40;;;20.00;73.20;;;;;;5085360;28;20802;-72
2023/10/06 09:53:37;;;;;;;3.83;2.20;;;20.30;72.30;;;;;;5083987;28;20449;-71
2023/10/06 09:56:06;;;;;;;4.90;2.50;;;20.50;70.90;;;;;;5084263;28;20427;-71
2023/10/06 09:58:35;;;;;;;4.00;2.50;;;20.70;70.90;;;;;;5090571;28;20430;-72
2023/10/06 10:01:03;;;;;;;4.60;2.50;;;20.80;67.70;;;;;;5085818;28;20673;-73
2023/10/06 10:03:30;;;;;;;4.72;2.40;;;21.00;63.30;;;;;;5084083;28;20426;-72
2023/10/06 10:06:00;;;;;;;4.63;2.33;;;21.10;63.40;;;;;;5085425;28;20439;-71
2023/10/06 10:08:30;;;;;;;3.92;2.13;;;21.20;62.80;;;;;;5100635;28;20487;-74
2023/10/06 10:11:01;;;;;;;4.37;2.40;;;21.20;60.30;;;;;;5092090;28;20871;-72
2023/10/06 10:13:45;;;;;;;4.55;2.40;;;21.40;58.20;;;;;;5077310;28;20453;-73
2023/10/06 10:16:33;;;;;;;4.68;2.30;;;21.30;58.00;;;;;;5086936;28;20413;-71
2023/10/06 10:19:07;;;;;;;5.07;2.30;;;21.10;58.70;;;;;;5088531;28;20844;-73
2023/10/06 10:21:34;;;;;;;5.28;2.30;;;21.10;58.70;;;;;;5083560;28;20436;-71
2023/10/06 10:24:05;;;;;;;3.10;1.83;;;21.20;56.50;;;;;;5089539;28;20416;-71
2023/10/06 10:26:34;;;;;;;3.77;2.10;;;21.10;54.90;;;;;;5078284;28;20457;-71
2023/10/06 10:29:30;;;;;;;3.33;2.00;;;20.80;56.10;;;;;;5090393;28;20406;-72
2023/10/06 10:32:01;;;;;;;4.80;2.40;;;20.50;57.10;;;;;;5086330;28;20814;-71
2023/10/06 10:34:33;;;;;;;5.22;2.33;;;20.30;58.80;;;;;;5082391;28;20504;-73
2023/10/06 10:37:17;;;;;;;4.10;2.30;;;20.20;59.80;;;;;;5083844;28;20441;-71
2023/10/06 10:39:52;;;;;;;3.50;1.83;;;20.40;59.50;;;;;;5075949;28;20420;-72
2023/10/06 10:42:22;;;;;;;4.43;2.10;;;20.50;58.60;;;;;;5070102;28;20952;-72
2023/10/06 10:45:10;;;;;;;3.45;1.83;;;20.70;59.50;;;;;;5073779;28;20495;-71
2023/10/06 10:47:38;;;;;;;3.95;2.10;;;20.80;57.40;;;;;;5097120;28;20408;-72
2023/10/06 10:50:07;;;;;;;4.57;2.10;;;21.00;58.50;;;;;;5089301;28;20429;-70
2023/10/06 10:52:33;;;;;;;3.70;2.20;;;21.20;57.10;;;;;;5091368;28;20473;-71
2023/10/06 10:55:01;;;;;;;4.13;2.40;;;21.50;54.60;;;;;;5078768;28;20905;-72
2023/10/06 10:57:28;;;;;;;4.20;2.15;;;21.50;55.20;;;;;;5082256;28;20453;-72
2023/10/06 11:00:20;;;;;;;5.28;2.47;;;21.60;55.60;;;;;;5082122;28;20449;-71
2023/10/06 11:03:02;;;;;;;4.60;2.13;;;21.70;54.90;;;;;;5082083;28;20425;-72
2023/10/06 11:05:31;;;;;;;3.92;2.40;;;21.70;53.50;;;;;;5089107;28;20422;-71
2023/10/06 11:07:58;;;;;;;4.90;2.50;;;21.70;53.30;;;;;;5087634;28;20783;-72
2023/10/06 11:10:26;;;;;;;4.00;2.20;;;21.80;53.60;;;;;;5086098;28;20421;-72
2023/10/06 11:13:12;;;;;;;4.33;2.20;;;21.70;52.70;;;;;;5089303;28;20445;-71
2023/10/06 11:15:41;;;;;;;5.40;2.28;;;21.60;52.60;;;;;;5079169;28;20430;-74
2023/10/06 11:18:09;;;;;;;3.03;1.80;;;21.70;55.70;;;;;;5091305;28;20416;-72
2023/10/06 11:20:38;;;;;;;4.63;2.10;;;21.90;53.80;;;;;;5091947;28;20470;-72
2023/10/06 11:23:05;;;;;;;4.60;2.10;;;22.10;51.30;;;;;;5088263;28;20431;-73
2023/10/06 11:25:35;;;;;;;4.00;2.20;;;22.10;50.50;;;;;;5096916;28;20457;-71
2023/10/06 11:28:04;;;;;;;3.33;2.00;;;21.90;51.70;;;;;;5093634;28;20409;-72
2023/10/06 11:30:32;;;;;;;5.75;2.70;;;21.80;52.80;;;;;;5091226;28;20406;-73
2023/10/06 11:33:02;;;;;;;3.72;2.10;;;22.00;51.50;;;;;;5088836;28;20416;-72
2023/10/06 11:35:30;;;;;;;5.20;2.85;;;22.00;52.80;;;;;;5090878;28;20421;-73
2023/10/06 11:37:57;;;;;;;3.17;1.90;;;22.10;51.20;;;;;;5086724;28;20412;-71
2023/10/06 11:40:25;;;;;;;5.20;2.30;;;22.30;50.80;;;;;;5089481;28;20412;-70
2023/10/06 11:42:52;;;;;;;4.45;2.40;;;22.30;51.20;;;;;;5084238;28;20830;-72
2023/10/06 11:45:27;;;;;;;4.93;2.80;;;22.50;51.70;;;;;;5085963;28;20417;-72
2023/10/06 11:47:55;;;;;;;7.00;2.73;;;22.70;50.40;;;;;;5091251;28;20414;-72
2023/10/06 11:50:25;;;;;;;4.28;2.22;;;22.70;49.70;;;;;;5090548;28;20426;-73
2023/10/06 11:52:53;;;;;;;3.78;2.30;;;22.70;50.60;;;;;;5088552;28;20424;-72
2023/10/06 11:55:29;;;;;;;4.82;2.33;;;22.90;49.90;;;;;;5092676;28;20432;-72
2023/10/06 11:57:58;;;;;;;3.75;2.30;;;23.00;50.60;;;;;;5091726;28;20435;-72
2023/10/06 12:00:37;;;;;;;4.00;2.40;;;23.10;48.20;;;;;;5085544;28;20425;-73
2023/10/06 12:03:04;;;;;;;4.18;2.42;;;23.20;48.70;;;;;;5086162;28;20549;-71
2023/10/06 12:05:32;;;;;;;4.45;2.05;;;23.40;48.80;;;;;;5088275;28;20406;-70
2023/10/06 12:08:08;;;;;;;4.15;2.30;;;23.30;45.60;;;;;;5087089;28;20416;-73
2023/10/06 12:10:46;;;;;;;4.78;2.30;;;23.20;46.70;;;;;;5080371;28;20412;-75
2023/10/06 12:13:13;;;;;;;4.28;2.55;;;23.30;46.90;;;;;;5089502;28;20424;-73
2023/10/06 12:15:39;;;;;;;3.35;1.98;;;23.30;45.30;;;;;;5092397;28;20432;-71
2023/10/06 12:18:10;;;;;;;3.67;1.90;;;23.40;46.40;;;;;;5085768;28;20431;-73
2023/10/06 12:20:38;;;;;;;3.50;2.13;;;23.60;44.80;;;;;;5092473;28;20410;-71
2023/10/06 12:23:05;;;;;;;4.32;2.20;;;23.50;45.60;;;;;;5090142;28;20410;-72
2023/10/06 12:25:32;;;;;;;3.72;1.88;;;23.20;45.40;;;;;;5090755;28;20414;-70
2023/10/06 12:28:00;;;;;;;4.15;2.00;;;23.10;44.80;;;;;;5089123;28;20422;-72
2023/10/06 12:30:28;;;;;;;3.63;2.10;;;23.20;44.50;;;;;;5113115;22;20437;-68
2023/10/06 12:32:55;;;;;;;3.60;1.90;;;23.30;46.00;;;;;;5086398;28;20460;-68
2023/10/06 12:35:22;;;;;;;3.28;2.00;;;23.40;44.50;;;;;;5089893;28;20789;-68
2023/10/06 12:37:53;;;;;;;4.55;1.85;;;23.50;45.10;;;;;;5086371;28;20426;-68
2023/10/06 12:40:19;;;;;;;4.38;2.10;;;23.60;43.80;;;;;;5083434;28;20416;-68
2023/10/06 12:42:46;;;;;;;3.77;2.17;;;23.60;43.80;;;;;;5110107;28;20894;-68
2023/10/06 12:45:17;;;;;;;4.30;2.10;;;23.30;45.40;;;;;;5106325;28;20404;-68
2023/10/06 12:47:46;;;;;;;4.75;2.00;;;23.40;45.00;;;;;;5105231;28;20431;-68
2023/10/06 12:50:16;;;;;;;4.35;2.05;;;23.60;45.10;;;;;;5090776;28;20409;-69
2023/10/06 12:52:44;;;;;;;4.00;2.00;;;23.90;46.10;;;;;;5102696;28;20720;-69
2023/10/06 12:55:12;;;;;;;3.78;2.40;;;24.10;44.20;;;;;;5103460;28;20943;-69
2023/10/06 12:57:40;;;;;;;4.57;1.90;;;24.30;43.10;;;;;;5110294;28;20423;-69
2023/10/06 13:00:08;;;;;;;2.83;1.80;;;24.10;43.00;;;;;;5101460;28;20834;-69